sensor_id;sensor_type;location;lat;lon;timestamp;pressure;altitude;pressure_sealevel;temperature;humidity
25658;BME280;13517;59.320;18.042;2023-10-31T00:02:13;99105.25;;;7.49;100.00
25658;BME280;13517;59.320;18.042;2023-10-31T00:04:39;99111.63;;;7.48;100.00
25658;BME280;13517;59.320;18.042;2023-10-31T00:07:04;99081.31;;;7.35;100.00
25658;BME280;13517;59.320;18.042;2023-10-31T00:09:30;99106.97;;;7.50;100.00
25658;BME280;13517;59.320;18.042;2023-10-31T00:11:55;99057.72;;;7.16;100.00
25658;BME280;13517;59.320;18.042;2023-10-31T00:14:21;99041.00;;;7.12;100.00
25658;BME280;13517;59.320;18.042;2023-10-31T00:16:46;99100.97;;;7.47;100.00
25658;BME280;13517;59.320;18.042;2023-10-31T00:19:13;99130.69;;;7.68;100.00
25658;BME280;13517;59.320;18.042;2023-10-31T00:21:39;99110.03;;;7.57;100.00
25658;BME280;13517;59.320;18.042;2023-10-31T00:24:04;99119.44;;;7.63;100.00
25658;BME280;13517;59.320;18.042;2023-10-31T00:26:30;99133.38;;;7.68;100.00
25658;BME280;13517;59.320;18.042;2023-10-31T00:28:55;99112.38;;;7.62;100.00
25658;BME280;13517;59.320;18.042;2023-10-31T00:31:21;99107.56;;;7.54;100.00
25658;BME280;13517;59.320;18.042;2023-10-31T00:33:46;99125.19;;;7.58;100.00
25658;BME280;13517;59.320;18.042;2023-10-31T00:36:11;99107.56;;;7.54;100.00
25658;BME280;13517;59.320;18.042;2023-10-31T00:38:37;99130.44;;;7.60;100.00
25658;BME280;13517;59.320;18.042;2023-10-31T00:41:02;99134.13;;;7.70;100.00
25658;BME280;13517;59.320;18.042;2023-10-31T00:43:28;99062.50;;;7.24;100.00
25658;BME280;13517;59.320;18.042;2023-10-31T00:45:53;99123.25;;;7.72;100.00
25658;BME280;13517;59.320;18.042;2023-10-31T00:48:19;99051.88;;;7.33;100.00
25658;BME280;13517;59.320;18.042;2023-10-31T00:50:45;99079.75;;;7.44;100.00
25658;BME280;13517;59.320;18.042;2023-10-31T00:53:10;99096.00;;;7.54;100.00
25658;BME280;13517;59.320;18.042;2023-10-31T00:55:36;99102.81;;;7.58;100.00
25658;BME280;13517;59.320;18.042;2023-10-31T00:58:01;99044.44;;;7.26;100.00
25658;BME280;13517;59.320;18.042;2023-10-31T01:00:26;99038.44;;;7.22;100.00
25658;BME280;13517;59.320;18.042;2023-10-31T01:02:52;99039.66;;;7.18;100.00
25658;BME280;13517;59.320;18.042;2023-10-31T01:05:18;99039.28;;;7.22;100.00
25658;BME280;13517;59.320;18.042;2023-10-31T01:07:43;99076.56;;;7.50;100.00
25658;BME280;13517;59.320;18.042;2023-10-31T01:10:08;99090.38;;;7.57;100.00
25658;BME280;13517;59.320;18.042;2023-10-31T01:12:34;99092.56;;;7.63;100.00
25658;BME280;13517;59.320;18.042;2023-10-31T01:15:00;99068.38;;;7.40;100.00
25658;BME280;13517;59.320;18.042;2023-10-31T01:17:25;99093.69;;;7.49;100.00
25658;BME280;13517;59.320;18.042;2023-10-31T01:19:50;99083.16;;;7.46;100.00
25658;BME280;13517;59.320;18.042;2023-10-31T01:22:16;99116.25;;;7.58;100.00
25658;BME280;13517;59.320;18.042;2023-10-31T01:24:41;99123.38;;;7.70;100.00
25658;BME280;13517;59.320;18.042;2023-10-31T01:27:07;99123.13;;;7.73;100.00
25658;BME280;13517;59.320;18.042;2023-10-31T01:29:32;99094.66;;;7.59;100.00
25658;BME280;13517;59.320;18.042;2023-10-31T01:31:57;99109.41;;;7.65;100.00
25658;BME280;13517;59.320;18.042;2023-10-31T01:34:23;99107.72;;;7.64;100.00
25658;BME280;13517;59.320;18.042;2023-10-31T01:36:48;99099.53;;;7.66;100.00
25658;BME280;13517;59.320;18.042;2023-10-31T01:39:14;99071.81;;;7.54;100.00
25658;BME280;13517;59.320;18.042;2023-10-31T01:41:42;99081.31;;;7.58;100.00
25658;BME280;13517;59.320;18.042;2023-10-31T01:44:09;99080.59;;;7.56;100.00
25658;BME280;13517;59.320;18.042;2023-10-31T01:46:34;99081.72;;;7.65;100.00
25658;BME280;13517;59.320;18.042;2023-10-31T01:49:00;99059.59;;;7.61;100.00
25658;BME280;13517;59.320;18.042;2023-10-31T01:51:26;99078.66;;;7.69;100.00
25658;BME280;13517;59.320;18.042;2023-10-31T01:53:53;99030.78;;;7.40;100.00
25658;BME280;13517;59.320;18.042;2023-10-31T01:56:20;99060.81;;;7.57;100.00
25658;BME280;13517;59.320;18.042;2023-10-31T01:58:45;99091.84;;;7.72;100.00
25658;BME280;13517;59.320;18.042;2023-10-31T02:01:13;99065.34;;;7.56;100.00
25658;BME280;13517;59.320;18.042;2023-10-31T02:03:38;99081.00;;;7.62;100.00
25658;BME280;13517;59.320;18.042;2023-10-31T02:06:04;99075.72;;;7.61;100.00
25658;BME280;13517;59.320;18.042;2023-10-31T02:08:30;99078.78;;;7.56;100.00
25658;BME280;13517;59.320;18.042;2023-10-31T02:10:55;99085.50;;;7.62;100.00
25658;BME280;13517;59.320;18.042;2023-10-31T02:13:21;99061.44;;;7.49;100.00
25658;BME280;13517;59.320;18.042;2023-10-31T02:15:46;99073.78;;;7.52;100.00
25658;BME280;13517;59.320;18.042;2023-10-31T02:18:12;99084.16;;;7.56;100.00
25658;BME280;13517;59.320;18.042;2023-10-31T02:20:38;98988.50;;;7.08;100.00
25658;BME280;13517;59.320;18.042;2023-10-31T02:23:04;99059.34;;;7.41;100.00
25658;BME280;13517;59.320;18.042;2023-10-31T02:25:30;99059.81;;;7.58;100.00
25658;BME280;13517;59.320;18.042;2023-10-31T02:27:55;99026.59;;;7.36;100.00
25658;BME280;13517;59.320;18.042;2023-10-31T02:30:21;99039.78;;;7.50;100.00
25658;BME280;13517;59.320;18.042;2023-10-31T02:32:46;99061.56;;;7.59;100.00
25658;BME280;13517;59.320;18.042;2023-10-31T02:35:13;99066.44;;;7.65;100.00
25658;BME280;13517;59.320;18.042;2023-10-31T02:37:39;99040.91;;;7.48;100.00
25658;BME280;13517;59.320;18.042;2023-10-31T02:40:05;99057.91;;;7.60;100.00
25658;BME280;13517;59.320;18.042;2023-10-31T02:42:31;99054.22;;;7.61;100.00
25658;BME280;13517;59.320;18.042;2023-10-31T02:44:56;99066.44;;;7.65;100.00
25658;BME280;13517;59.320;18.042;2023-10-31T02:47:22;99063.00;;;7.63;100.00
25658;BME280;13517;59.320;18.042;2023-10-31T02:49:47;99076.34;;;7.65;100.00
25658;BME280;13517;59.320;18.042;2023-10-31T02:52:13;99077.19;;;7.65;100.00
25658;BME280;13517;59.320;18.042;2023-10-31T02:54:38;99010.50;;;7.25;100.00
25658;BME280;13517;59.320;18.042;2023-10-31T02:57:04;99056.31;;;7.57;100.00
25658;BME280;13517;59.320;18.042;2023-10-31T02:59:29;98994.00;;;7.18;100.00
25658;BME280;13517;59.320;18.042;2023-10-31T03:01:56;99066.44;;;7.65;100.00
25658;BME280;13517;59.320;18.042;2023-10-31T03:04:22;99078.03;;;7.66;100.00
25658;BME280;13517;59.320;18.042;2023-10-31T03:06:48;99065.19;;;7.58;100.00
25658;BME280;13517;59.320;18.042;2023-10-31T03:09:13;99087.56;;;7.58;100.00
25658;BME280;13517;59.320;18.042;2023-10-31T03:11:39;99094.28;;;7.64;100.00
25658;BME280;13517;59.320;18.042;2023-10-31T03:14:04;99074.09;;;7.47;100.00
25658;BME280;13517;59.320;18.042;2023-10-31T03:16:31;99037.72;;;7.20;100.00
25658;BME280;13517;59.320;18.042;2023-10-31T03:18:58;99061.03;;;7.42;100.00
25658;BME280;13517;59.320;18.042;2023-10-31T03:21:23;99016.56;;;7.15;100.00
25658;BME280;13517;59.320;18.042;2023-10-31T03:23:50;99077.78;;;7.46;100.00
25658;BME280;13517;59.320;18.042;2023-10-31T03:26:18;99081.59;;;7.55;100.00
25658;BME280;13517;59.320;18.042;2023-10-31T03:28:44;99056.16;;;7.36;100.00
25658;BME280;13517;59.320;18.042;2023-10-31T03:31:10;99118.84;;;7.71;100.00
25658;BME280;13517;59.320;18.042;2023-10-31T03:33:36;99067.66;;;7.38;100.00
25658;BME280;13517;59.320;18.042;2023-10-31T03:36:01;99111.78;;;7.70;100.00
25658;BME280;13517;59.320;18.042;2023-10-31T03:38:27;99113.22;;;7.74;100.00
25658;BME280;13517;59.320;18.042;2023-10-31T03:40:53;99104.19;;;7.75;100.00
25658;BME280;13517;59.320;18.042;2023-10-31T03:43:19;99089.16;;;7.61;100.00
25658;BME280;13517;59.320;18.042;2023-10-31T03:45:46;99097.84;;;7.65;100.00
25658;BME280;13517;59.320;18.042;2023-10-31T03:48:12;99087.19;;;7.63;100.00
25658;BME280;13517;59.320;18.042;2023-10-31T03:50:38;99083.69;;;7.62;100.00
25658;BME280;13517;59.320;18.042;2023-10-31T03:53:03;99080.84;;;7.64;100.00
25658;BME280;13517;59.320;18.042;2023-10-31T03:55:29;99086.72;;;7.69;100.00
25658;BME280;13517;59.320;18.042;2023-10-31T03:57:55;99033.81;;;7.35;100.00
25658;BME280;13517;59.320;18.042;2023-10-31T04:00:21;99085.00;;;7.68;100.00
25658;BME280;13517;59.320;18.042;2023-10-31T04:02:46;99021.22;;;7.36;100.00
25658;BME280;13517;59.320;18.042;2023-10-31T04:05:11;99041.16;;;7.45;100.00
25658;BME280;13517;59.320;18.042;2023-10-31T04:07:37;99073.75;;;7.63;100.00
25658;BME280;13517;59.320;18.042;2023-10-31T04:10:03;99084.53;;;7.74;100.00
25658;BME280;13517;59.320;18.042;2023-10-31T04:12:29;99095.53;;;7.83;100.00
25658;BME280;13517;59.320;18.042;2023-10-31T04:14:54;99065.69;;;7.63;100.00
25658;BME280;13517;59.320;18.042;2023-10-31T04:17:20;99091.00;;;7.83;100.00
25658;BME280;13517;59.320;18.042;2023-10-31T04:19:45;99076.94;;;7.68;100.00
25658;BME280;13517;59.320;18.042;2023-10-31T04:22:10;99065.09;;;7.59;100.00
25658;BME280;13517;59.320;18.042;2023-10-31T04:24:36;99087.06;;;7.76;100.00
25658;BME280;13517;59.320;18.042;2023-10-31T04:27:01;99083.78;;;7.72;100.00
25658;BME280;13517;59.320;18.042;2023-10-31T04:29:27;99027.09;;;7.41;100.00
25658;BME280;13517;59.320;18.042;2023-10-31T04:31:52;99040.41;;;7.43;100.00
25658;BME280;13517;59.320;18.042;2023-10-31T04:34:17;99096.38;;;7.83;100.00
25658;BME280;13517;59.320;18.042;2023-10-31T04:36:43;99099.41;;;7.79;100.00
25658;BME280;13517;59.320;18.042;2023-10-31T04:39:08;99065.59;;;7.65;100.00
25658;BME280;13517;59.320;18.042;2023-10-31T04:41:34;99009.75;;;7.34;100.00
25658;BME280;13517;59.320;18.042;2023-10-31T04:44:00;99014.41;;;7.43;100.00
25658;BME280;13517;59.320;18.042;2023-10-31T04:46:25;99092.84;;;7.83;100.00
25658;BME280;13517;59.320;18.042;2023-10-31T04:48:54;99044.44;;;7.48;100.00
25658;BME280;13517;59.320;18.042;2023-10-31T04:51:19;99083.06;;;7.82;100.00
25658;BME280;13517;59.320;18.042;2023-10-31T04:53:45;98999.28;;;7.31;100.00
25658;BME280;13517;59.320;18.042;2023-10-31T04:56:14;99084.16;;;7.79;100.00
25658;BME280;13517;59.320;18.042;2023-10-31T04:58:44;99027.81;;;7.43;100.00
25658;BME280;13517;59.320;18.042;2023-10-31T05:01:10;98994.38;;;7.25;100.00
25658;BME280;13517;59.320;18.042;2023-10-31T05:03:36;99041.78;;;7.60;100.00
25658;BME280;13517;59.320;18.042;2023-10-31T05:06:02;99082.19;;;7.81;100.00
25658;BME280;13517;59.320;18.042;2023-10-31T05:08:29;98973.84;;;7.12;100.00
25658;BME280;13517;59.320;18.042;2023-10-31T05:10:54;99059.59;;;7.61;100.00
25658;BME280;13517;59.320;18.042;2023-10-31T05:13:20;99067.03;;;7.69;100.00
25658;BME280;13517;59.320;18.042;2023-10-31T05:15:45;99055.44;;;7.57;100.00
25658;BME280;13517;59.320;18.042;2023-10-31T05:18:11;99101.00;;;7.81;100.00
25658;BME280;13517;59.320;18.042;2023-10-31T05:20:36;99074.25;;;7.57;100.00
25658;BME280;13517;59.320;18.042;2023-10-31T05:23:01;99110.16;;;7.79;100.00
25658;BME280;13517;59.320;18.042;2023-10-31T05:25:27;99110.16;;;7.79;100.00
25658;BME280;13517;59.320;18.042;2023-10-31T05:27:52;99109.34;;;7.78;100.00
25658;BME280;13517;59.320;18.042;2023-10-31T05:30:18;99122.16;;;7.86;100.00
25658;BME280;13517;59.320;18.042;2023-10-31T05:32:43;99100.91;;;7.83;100.00
25658;BME280;13517;59.320;18.042;2023-10-31T05:35:10;99103.69;;;7.81;100.00
25658;BME280;13517;59.320;18.042;2023-10-31T05:37:35;99111.16;;;7.77;100.00
25658;BME280;13517;59.320;18.042;2023-10-31T05:40:01;99035.75;;;7.33;100.00
25658;BME280;13517;59.320;18.042;2023-10-31T05:42:26;99127.28;;;7.89;100.00
25658;BME280;13517;59.320;18.042;2023-10-31T05:44:53;99097.47;;;7.69;100.00
25658;BME280;13517;59.320;18.042;2023-10-31T05:47:19;99103.09;;;7.77;100.00
25658;BME280;13517;59.320;18.042;2023-10-31T05:49:44;99126.56;;;7.87;100.00
25658;BME280;13517;59.320;18.042;2023-10-31T05:52:10;98965.66;;;6.91;100.00
25658;BME280;13517;59.320;18.042;2023-10-31T05:54:35;98993.13;;;7.06;100.00
25658;BME280;13517;59.320;18.042;2023-10-31T05:57:00;99120.19;;;7.65;100.00
25658;BME280;13517;59.320;18.042;2023-10-31T05:59:26;98927.19;;;6.67;100.00
25658;BME280;13517;59.320;18.042;2023-10-31T06:01:51;98998.28;;;7.09;100.00
25658;BME280;13517;59.320;18.042;2023-10-31T06:04:17;99124.50;;;7.90;100.00
25658;BME280;13517;59.320;18.042;2023-10-31T06:06:42;99052.50;;;7.48;100.00
25658;BME280;13517;59.320;18.042;2023-10-31T06:09:07;99091.22;;;7.69;100.00
25658;BME280;13517;59.320;18.042;2023-10-31T06:11:35;99084.50;;;7.63;100.00
25658;BME280;13517;59.320;18.042;2023-10-31T06:14:01;99018.53;;;7.13;100.00
25658;BME280;13517;59.320;18.042;2023-10-31T06:16:26;99097.97;;;7.74;100.00
25658;BME280;13517;59.320;18.042;2023-10-31T06:18:51;99102.72;;;7.71;100.00
25658;BME280;13517;59.320;18.042;2023-10-31T06:21:17;99117.03;;;7.83;100.00
25658;BME280;13517;59.320;18.042;2023-10-31T06:23:42;99077.69;;;7.59;100.00
25658;BME280;13517;59.320;18.042;2023-10-31T06:26:10;99114.81;;;7.76;100.00
25658;BME280;13517;59.320;18.042;2023-10-31T06:28:37;99122.50;;;7.81;100.00
25658;BME280;13517;59.320;18.042;2023-10-31T06:31:03;99073.16;;;7.48;100.00
25658;BME280;13517;59.320;18.042;2023-10-31T06:33:28;99109.19;;;7.68;100.00
25658;BME280;13517;59.320;18.042;2023-10-31T06:35:54;99169.06;;;7.93;100.00
25658;BME280;13517;59.320;18.042;2023-10-31T06:38:19;99141.34;;;7.81;100.00
25658;BME280;13517;59.320;18.042;2023-10-31T06:40:45;99143.03;;;7.82;100.00
25658;BME280;13517;59.320;18.042;2023-10-31T06:43:10;99153.69;;;7.84;100.00
25658;BME280;13517;59.320;18.042;2023-10-31T06:45:36;99164.47;;;7.95;100.00
25658;BME280;13517;59.320;18.042;2023-10-31T06:48:02;99100.50;;;7.53;100.00
25658;BME280;13517;59.320;18.042;2023-10-31T06:50:27;99039.38;;;7.09;100.00
25658;BME280;13517;59.320;18.042;2023-10-31T06:52:55;98978.09;;;6.80;100.00
25658;BME280;13517;59.320;18.042;2023-10-31T06:55:20;99110.53;;;7.51;100.00
25658;BME280;13517;59.320;18.042;2023-10-31T06:57:45;99135.69;;;7.61;100.00
25658;BME280;13517;59.320;18.042;2023-10-31T07:00:12;99176.31;;;7.93;100.00
25658;BME280;13517;59.320;18.042;2023-10-31T07:02:37;99174.44;;;7.93;100.00
25658;BME280;13517;59.320;18.042;2023-10-31T07:05:03;99176.66;;;7.88;100.00
25658;BME280;13517;59.320;18.042;2023-10-31T07:07:29;99093.06;;;7.45;100.00
25658;BME280;13517;59.320;18.042;2023-10-31T07:09:54;99169.59;;;7.87;100.00
25658;BME280;13517;59.320;18.042;2023-10-31T07:12:20;99040.25;;;7.10;100.00
25658;BME280;13517;59.320;18.042;2023-10-31T07:14:45;99028.13;;;6.93;100.00
25658;BME280;13517;59.320;18.042;2023-10-31T07:17:11;99112.34;;;7.50;100.00
25658;BME280;13517;59.320;18.042;2023-10-31T07:19:36;99170.53;;;7.86;100.00
25658;BME280;13517;59.320;18.042;2023-10-31T07:22:02;99154.63;;;7.71;100.00
25658;BME280;13517;59.320;18.042;2023-10-31T07:24:27;99121.88;;;7.55;100.00
25658;BME280;13517;59.320;18.042;2023-10-31T07:26:54;99114.41;;;7.47;100.00
25658;BME280;13517;59.320;18.042;2023-10-31T07:29:19;99142.03;;;7.60;100.00
25658;BME280;13517;59.320;18.042;2023-10-31T07:31:45;99136.03;;;7.45;100.00
25658;BME280;13517;59.320;18.042;2023-10-31T07:34:11;99167.59;;;7.66;100.00
25658;BME280;13517;59.320;18.042;2023-10-31T07:36:37;99170.91;;;7.70;100.00
25658;BME280;13517;59.320;18.042;2023-10-31T07:39:04;99182.50;;;7.70;100.00
25658;BME280;13517;59.320;18.042;2023-10-31T07:41:30;99199.34;;;7.72;100.00
25658;BME280;13517;59.320;18.042;2023-10-31T07:43:55;99096.81;;;7.20;100.00
25658;BME280;13517;59.320;18.042;2023-10-31T07:46:20;99107.75;;;7.17;100.00
25658;BME280;13517;59.320;18.042;2023-10-31T07:48:47;99147.94;;;7.30;100.00
25658;BME280;13517;59.320;18.042;2023-10-31T07:51:12;99173.66;;;7.45;100.00
25658;BME280;13517;59.320;18.042;2023-10-31T07:53:38;99143.81;;;7.26;100.00
25658;BME280;13517;59.320;18.042;2023-10-31T07:56:03;99147.47;;;7.25;100.00
25658;BME280;13517;59.320;18.042;2023-10-31T07:58:29;99182.69;;;7.44;100.00
25658;BME280;13517;59.320;18.042;2023-10-31T08:00:54;99144.50;;;7.16;100.00
25658;BME280;13517;59.320;18.042;2023-10-31T08:03:19;99201.25;;;7.47;100.00
25658;BME280;13517;59.320;18.042;2023-10-31T08:05:45;99207.97;;;7.42;100.00
25658;BME280;13517;59.320;18.042;2023-10-31T08:08:10;99109.34;;;6.84;100.00
25658;BME280;13517;59.320;18.042;2023-10-31T08:10:36;99202.69;;;7.40;100.00
25658;BME280;13517;59.320;18.042;2023-10-31T08:13:01;99180.19;;;7.30;100.00
25658;BME280;13517;59.320;18.042;2023-10-31T08:15:26;99165.50;;;7.22;100.00
25658;BME280;13517;59.320;18.042;2023-10-31T08:17:52;99202.69;;;7.40;100.00
25658;BME280;13517;59.320;18.042;2023-10-31T08:20:17;99181.56;;;7.35;100.00
25658;BME280;13517;59.320;18.042;2023-10-31T08:22:43;99173.34;;;7.26;100.00
25658;BME280;13517;59.320;18.042;2023-10-31T08:25:08;99051.13;;;6.48;100.00
25658;BME280;13517;59.320;18.042;2023-10-31T08:27:34;99043.22;;;6.47;100.00
25658;BME280;13517;59.320;18.042;2023-10-31T08:29:59;99182.13;;;7.28;100.00
25658;BME280;13517;59.320;18.042;2023-10-31T08:32:25;99194.84;;;7.26;100.00
25658;BME280;13517;59.320;18.042;2023-10-31T08:34:50;98951.69;;;5.78;100.00
25658;BME280;13517;59.320;18.042;2023-10-31T08:37:16;99143.59;;;7.04;100.00
25658;BME280;13517;59.320;18.042;2023-10-31T08:39:41;99178.09;;;7.22;100.00
25658;BME280;13517;59.320;18.042;2023-10-31T08:42:07;99118.88;;;6.88;100.00
25658;BME280;13517;59.320;18.042;2023-10-31T08:44:33;99161.25;;;7.20;100.00
25658;BME280;13517;59.320;18.042;2023-10-31T08:46:59;99160.66;;;7.28;100.00
25658;BME280;13517;59.320;18.042;2023-10-31T08:49:25;99041.03;;;6.52;100.00
25658;BME280;13517;59.320;18.042;2023-10-31T08:51:50;99163.97;;;7.31;100.00
25658;BME280;13517;59.320;18.042;2023-10-31T08:54:15;99164.78;;;7.20;100.00
25658;BME280;13517;59.320;18.042;2023-10-31T08:56:41;99095.38;;;6.67;100.00
25658;BME280;13517;59.320;18.042;2023-10-31T08:59:06;99110.28;;;6.71;100.00
25658;BME280;13517;59.320;18.042;2023-10-31T09:01:32;99133.63;;;6.82;100.00
25658;BME280;13517;59.320;18.042;2023-10-31T09:03:58;99118.97;;;6.75;100.00
25658;BME280;13517;59.320;18.042;2023-10-31T09:06:25;99122.72;;;6.72;100.00
25658;BME280;13517;59.320;18.042;2023-10-31T09:08:52;99067.56;;;6.44;100.00
25658;BME280;13517;59.320;18.042;2023-10-31T09:11:17;99101.72;;;6.66;100.00
25658;BME280;13517;59.320;18.042;2023-10-31T09:13:42;99154.94;;;6.97;100.00
25658;BME280;13517;59.320;18.042;2023-10-31T09:16:08;99136.59;;;6.90;100.00
25658;BME280;13517;59.320;18.042;2023-10-31T09:18:33;99112.84;;;6.73;100.00
25658;BME280;13517;59.320;18.042;2023-10-31T09:20:59;99153.22;;;6.95;100.00
25658;BME280;13517;59.320;18.042;2023-10-31T09:23:25;99104.63;;;6.63;100.00
25658;BME280;13517;59.320;18.042;2023-10-31T09:25:50;99149.50;;;6.85;100.00
25658;BME280;13517;59.320;18.042;2023-10-31T09:28:16;99047.50;;;6.25;100.00
25658;BME280;13517;59.320;18.042;2023-10-31T09:30:42;99137.69;;;6.88;100.00
25658;BME280;13517;59.320;18.042;2023-10-31T09:33:07;99139.72;;;6.84;100.00
25658;BME280;13517;59.320;18.042;2023-10-31T09:35:33;98987.44;;;6.03;100.00
25658;BME280;13517;59.320;18.042;2023-10-31T09:37:58;99135.97;;;6.87;100.00
25658;BME280;13517;59.320;18.042;2023-10-31T09:40:23;99140.25;;;6.89;100.00
25658;BME280;13517;59.320;18.042;2023-10-31T09:42:49;99129.53;;;6.89;100.00
25658;BME280;13517;59.320;18.042;2023-10-31T09:45:15;98995.00;;;6.09;100.00
25658;BME280;13517;59.320;18.042;2023-10-31T09:47:41;99125.84;;;6.90;100.00
25658;BME280;13517;59.320;18.042;2023-10-31T09:50:08;99091.72;;;6.68;100.00
25658;BME280;13517;59.320;18.042;2023-10-31T09:52:35;99087.22;;;6.68;100.00
25658;BME280;13517;59.320;18.042;2023-10-31T09:55:02;99078.66;;;6.63;100.00
25658;BME280;13517;59.320;18.042;2023-10-31T09:57:28;99070.53;;;6.52;100.00
25658;BME280;13517;59.320;18.042;2023-10-31T09:59:54;99094.19;;;6.71;100.00
25658;BME280;13517;59.320;18.042;2023-10-31T10:02:20;99067.38;;;6.47;100.00
25658;BME280;13517;59.320;18.042;2023-10-31T10:04:45;99081.56;;;6.60;100.00
25658;BME280;13517;59.320;18.042;2023-10-31T10:07:18;99081.94;;;6.56;100.00
25658;BME280;13517;59.320;18.042;2023-10-31T10:09:45;99096.25;;;6.67;100.00
25658;BME280;13517;59.320;18.042;2023-10-31T10:12:16;99074.72;;;6.56;100.00
25658;BME280;13517;59.320;18.042;2023-10-31T10:14:42;99093.78;;;6.64;100.00
25658;BME280;13517;59.320;18.042;2023-10-31T10:17:15;99099.13;;;6.64;100.00
25658;BME280;13517;59.320;18.042;2023-10-31T10:19:41;99050.47;;;6.33;100.00
25658;BME280;13517;59.320;18.042;2023-10-31T10:22:07;99081.78;;;6.57;100.00
25658;BME280;13517;59.320;18.042;2023-10-31T10:24:33;99097.44;;;6.63;100.00
25658;BME280;13517;59.320;18.042;2023-10-31T10:26:58;99081.78;;;6.57;100.00
25658;BME280;13517;59.320;18.042;2023-10-31T10:29:24;99079.34;;;6.54;100.00
25658;BME280;13517;59.320;18.042;2023-10-31T10:31:51;99066.09;;;6.39;100.00
25658;BME280;13517;59.320;18.042;2023-10-31T10:34:17;99058.78;;;6.42;100.00
25658;BME280;13517;59.320;18.042;2023-10-31T10:36:53;99036.00;;;6.23;100.00
25658;BME280;13517;59.320;18.042;2023-10-31T10:39:20;99069.19;;;6.46;100.00
25658;BME280;13517;59.320;18.042;2023-10-31T10:41:53;99025.28;;;6.23;100.00
25658;BME280;13517;59.320;18.042;2023-10-31T10:44:34;99074.50;;;6.59;100.00
25658;BME280;13517;59.320;18.042;2023-10-31T10:47:04;99073.00;;;6.55;100.00
25658;BME280;13517;59.320;18.042;2023-10-31T10:49:36;99049.25;;;6.37;100.00
25658;BME280;13517;59.320;18.042;2023-10-31T10:52:41;99073.75;;;6.57;100.00
25658;BME280;13517;59.320;18.042;2023-10-31T10:55:20;99055.88;;;6.45;100.00
25658;BME280;13517;59.320;18.042;2023-10-31T10:58:00;99074.50;;;6.59;100.00
25658;BME280;13517;59.320;18.042;2023-10-31T11:00:26;99057.47;;;6.47;100.00
25658;BME280;13517;59.320;18.042;2023-10-31T11:02:56;99070.94;;;6.59;100.00
25658;BME280;13517;59.320;18.042;2023-10-31T11:05:23;99001.13;;;6.11;100.00
25658;BME280;13517;59.320;18.042;2023-10-31T11:07:49;99036.81;;;6.36;100.00
25658;BME280;13517;59.320;18.042;2023-10-31T11:10:17;99057.38;;;6.49;100.00
25658;BME280;13517;59.320;18.042;2023-10-31T11:12:43;99033.66;;;6.31;100.00
25658;BME280;13517;59.320;18.042;2023-10-31T11:15:10;99018.66;;;6.16;100.00
25658;BME280;13517;59.320;18.042;2023-10-31T11:17:42;99008.81;;;6.16;100.00
25658;BME280;13517;59.320;18.042;2023-10-31T11:20:11;99062.00;;;6.47;100.00
25658;BME280;13517;59.320;18.042;2023-10-31T11:22:43;99036.09;;;6.34;100.00
25658;BME280;13517;59.320;18.042;2023-10-31T11:25:15;98984.28;;;6.09;100.00
25658;BME280;13517;59.320;18.042;2023-10-31T11:27:41;99008.03;;;6.27;100.00
25658;BME280;13517;59.320;18.042;2023-10-31T11:30:08;99032.50;;;6.47;100.00
25658;BME280;13517;59.320;18.042;2023-10-31T11:32:49;98982.91;;;6.04;100.00
25658;BME280;13517;59.320;18.042;2023-10-31T11:35:17;99030.47;;;6.37;100.00
25658;BME280;13517;59.320;18.042;2023-10-31T11:37:43;98989.06;;;6.17;100.00
25658;BME280;13517;59.320;18.042;2023-10-31T11:40:22;98989.41;;;6.12;100.00
25658;BME280;13517;59.320;18.042;2023-10-31T11:42:52;99005.41;;;6.14;100.00
25658;BME280;13517;59.320;18.042;2023-10-31T11:48:01;99027.47;;;6.18;100.00
25658;BME280;13517;59.320;18.042;2023-10-31T11:50:27;98992.25;;;5.98;100.00
25658;BME280;13517;59.320;18.042;2023-10-31T11:53:19;98990.75;;;5.94;100.00
25658;BME280;13517;59.320;18.042;2023-10-31T11:55:47;99021.31;;;6.04;100.00
25658;BME280;13517;59.320;18.042;2023-10-31T11:58:21;99006.72;;;5.95;100.00
25658;BME280;13517;59.320;18.042;2023-10-31T12:00:48;98996.22;;;5.92;100.00
25658;BME280;13517;59.320;18.042;2023-10-31T12:03:19;99012.19;;;5.94;100.00
25658;BME280;13517;59.320;18.042;2023-10-31T12:05:55;98991.34;;;5.73;100.00
25658;BME280;13517;59.320;18.042;2023-10-31T12:08:35;98995.41;;;5.79;100.00
25658;BME280;13517;59.320;18.042;2023-10-31T12:13:29;98962.66;;;5.62;100.00
25658;BME280;13517;59.320;18.042;2023-10-31T12:15:55;98982.28;;;5.63;100.00
25658;BME280;13517;59.320;18.042;2023-10-31T12:18:20;98995.72;;;5.87;100.00
25658;BME280;13517;59.320;18.042;2023-10-31T12:20:50;98946.22;;;5.42;100.00
25658;BME280;13517;59.320;18.042;2023-10-31T12:23:17;98999.47;;;5.84;100.00
25658;BME280;13517;59.320;18.042;2023-10-31T12:25:50;98962.16;;;5.57;100.00
25658;BME280;13517;59.320;18.042;2023-10-31T12:28:20;98964.94;;;5.55;100.00
25658;BME280;13517;59.320;18.042;2023-10-31T12:30:46;98968.78;;;5.64;100.00
25658;BME280;13517;59.320;18.042;2023-10-31T12:33:12;98980.63;;;5.73;100.00
25658;BME280;13517;59.320;18.042;2023-10-31T12:35:38;98965.47;;;5.61;100.00
25658;BME280;13517;59.320;18.042;2023-10-31T12:38:04;99003.44;;;5.79;100.00
25658;BME280;13517;59.320;18.042;2023-10-31T12:40:29;98972.28;;;5.65;100.00
25658;BME280;13517;59.320;18.042;2023-10-31T12:42:55;98902.22;;;5.34;100.00
25658;BME280;13517;59.320;18.042;2023-10-31T12:45:21;98957.19;;;5.64;100.00
25658;BME280;13517;59.320;18.042;2023-10-31T12:50:34;98970.69;;;5.75;100.00
25658;BME280;13517;59.320;18.042;2023-10-31T12:53:03;98924.75;;;5.55;100.00
25658;BME280;13517;59.320;18.042;2023-10-31T12:55:30;98903.81;;;5.36;100.00